Nederlandse vliegveldverwachtingen (TAF)

Luchtvaartmeteorologische informatie voor operationeel gebruik en vluchtvoorbereiding is beschikbaar op www.luchtvaartmeteo.nl.

ZCZC
FT132300 EHLE     LELYSTAD/LELYSTAD   NLD   -3 m.
TAF EHLE 132305Z 1400/1506 10003KT CAVOK
    BECMG 1410/1413 29008KT
    BECMG 1421/1424 05005KT=

ZCZC
FT132300 EHAM     AMSTERDAM/SCHIPHOL   NLD   -3 m.
TAF EHAM 132305Z 1400/1506 VRB03KT CAVOK
    BECMG 1403/1406 18007KT
    BECMG 1409/1412 24010KT
    BECMG 1415/1418 33006KT
    BECMG 1421/1424 04006KT=

ZCZC
FT132300 EHRD     ROTTERDAM/THE HAGUE AIRPORT   NLD   -5 m.
TAF EHRD 132305Z 1400/1506 10003KT CAVOK
    BECMG 1409/1412 27010KT
    BECMG 1418/1421 04005KT=

ZCZC
FT132300 EHGG     GRONINGEN/EELDE   NLD   5 m.
TAF EHGG 132301Z 1400/1506 12003KT CAVOK
    PROB30 TEMPO 1402/1404 7000 MIFG
    BECMG 1406/1409 22010KT
    BECMG 1410/1413 25010KT
    BECMG 1413/1416 28010KT
    BECMG 1416/1419 31007KT=

ZCZC
FT132300 EHBK     MAASTRICHT/MAASTRICHT-AACHEN   NLD   114 m.
TAF EHBK 132301Z 1400/1506 12005KT CAVOK=

ZCZC
FT132300 EHEH     EINDHOVEN/EINDHOVEN   NLD   22 m.
TAF EHEH 132305Z 1400/1506 14003KT CAVOK
    BECMG 1415/1418 31007KT
    PROB30 1501/1504 4000 BR=

ZCZC
FC140100 EHKD     DE KOOY/DE KOOY   NLD   1 m.
TAF EHKD 140015Z 1401/1413 18005KT CAVOK
    BECMG 1406/1409 23013KT=

ZCZC
FC140100 EHGR     GILZE-RIJEN/GILZE-RIJEN   NLD   14 m.
TAF EHGR 140100Z NIL=

ZCZC
FC140100 EHLW     LEEUWARDEN/LEEUWARDEN   NLD   1 m.
TAF EHLW 140038Z 1401/1413 15003KT CAVOK
    BECMG 1406/1409 24013KT=

ZCZC
FC140100 EHVK     VOLKEL/VOLKEL   NLD   21 m.
TAF EHVK 140020Z 1401/1413 VRB02KT CAVOK
    BECMG 1406/1409 20005KT=

ZCZC
FC140100 EHWO     WOENSDRECHT/WOENSDRECHT   NLD   19 m.
TAF EHWO 140100Z NIL=

14/06/2021 03.15 uur LT